createdAt,value
2022-07-30T00:00:03.315Z,1015.64
2022-07-30T00:05:02.975Z,1015.55
2022-07-30T00:10:02.700Z,1015.53
2022-07-30T00:15:02.564Z,1015.45
2022-07-30T00:20:02.858Z,1015.54
2022-07-30T00:25:03.128Z,1015.54
2022-07-30T00:30:03.208Z,1015.63
2022-07-30T00:35:02.989Z,1015.59
2022-07-30T00:40:02.715Z,1015.66
2022-07-30T00:45:02.514Z,1015.61
2022-07-30T00:50:03.328Z,1015.59
2022-07-30T00:55:04.072Z,1015.69
2022-07-30T01:00:02.610Z,1015.83
2022-07-30T01:05:02.377Z,1015.72
2022-07-30T01:10:03.159Z,1015.67
2022-07-30T01:15:02.572Z,1015.57
2022-07-30T01:20:02.208Z,1015.69
2022-07-30T01:25:02.967Z,1015.71
2022-07-30T01:30:02.775Z,1015.66
2022-07-30T01:35:02.584Z,1015.61
2022-07-30T01:40:02.280Z,1015.56
2022-07-30T01:45:03.226Z,1015.57
2022-07-30T01:50:02.457Z,1015.43
2022-07-30T01:55:17.988Z,1015.62
2022-07-30T02:00:02.224Z,1015.67
2022-07-30T02:05:03.048Z,1015.55
2022-07-30T02:10:02.730Z,1015.62
2022-07-30T02:15:02.564Z,1015.73
2022-07-30T02:20:10.115Z,1015.6
2022-07-30T02:25:02.873Z,1015.64
2022-07-30T02:30:02.651Z,1015.62
2022-07-30T02:35:02.404Z,1015.63
2022-07-30T02:40:02.806Z,1015.62
2022-07-30T02:45:02.678Z,1015.61
2022-07-30T02:50:03.321Z,1015.67
2022-07-30T02:55:04.479Z,1015.66
2022-07-30T03:00:02.923Z,1015.58
2022-07-30T03:05:02.338Z,1015.54
2022-07-30T03:10:03.040Z,1015.57
2022-07-30T03:15:03.075Z,1015.61
2022-07-30T03:20:02.698Z,1015.69
2022-07-30T03:25:02.574Z,1015.74
2022-07-30T03:30:02.484Z,1015.72
2022-07-30T03:35:08.610Z,1015.84
2022-07-30T03:40:02.763Z,1015.73
2022-07-30T03:45:02.419Z,1015.83
2022-07-30T03:50:03.147Z,1015.81
2022-07-30T03:55:04.088Z,1015.92
2022-07-30T04:00:02.735Z,1015.89
2022-07-30T04:05:02.345Z,1015.95
2022-07-30T04:10:03.099Z,1016
2022-07-30T04:15:02.868Z,1016.03
2022-07-30T04:20:02.879Z,1016
2022-07-30T04:25:02.770Z,1016.02
2022-07-30T04:30:02.472Z,1016.11
2022-07-30T04:35:03.083Z,1016.05
2022-07-30T04:40:02.895Z,1016.03
2022-07-30T04:45:02.550Z,1016.02
2022-07-30T04:50:02.265Z,1016.07
2022-07-30T04:55:03.971Z,1015.98
2022-07-30T05:00:02.942Z,1016.07
2022-07-30T05:05:03.094Z,1016.07
2022-07-30T05:10:02.429Z,1016.09
2022-07-30T05:15:03.190Z,1016.09
2022-07-30T05:20:03.093Z,1016.19
2022-07-30T05:25:16.358Z,1016.18
2022-07-30T05:30:03.254Z,1016.14
2022-07-30T05:35:03.065Z,1016.16
2022-07-30T05:40:04.000Z,1016.11
2022-07-30T05:45:02.385Z,1016.17
2022-07-30T05:50:05.113Z,1016.13
2022-07-30T05:55:04.411Z,1016.19
2022-07-30T06:00:02.838Z,1016.29
2022-07-30T06:05:02.887Z,1016.28
2022-07-30T06:10:02.425Z,1016.25
2022-07-30T06:15:03.203Z,1016.28
2022-07-30T06:20:03.180Z,1016.4
2022-07-30T06:25:03.456Z,1016.34
2022-07-30T06:30:02.760Z,1016.32
2022-07-30T06:35:05.689Z,1016.34
2022-07-30T06:40:03.177Z,1016.42
2022-07-30T06:45:02.792Z,1016.45
2022-07-30T06:50:02.503Z,1016.43
2022-07-30T06:55:03.448Z,1016.46
2022-07-30T07:00:03.144Z,1016.53
2022-07-30T07:05:02.885Z,1016.48
2022-07-30T07:10:02.453Z,1016.48
2022-07-30T07:15:02.222Z,1016.52
2022-07-30T07:20:03.064Z,1016.52
2022-07-30T07:25:02.654Z,1016.53
2022-07-30T07:30:04.784Z,1016.52
2022-07-30T07:35:02.852Z,1016.51
2022-07-30T07:40:02.598Z,1016.44
2022-07-30T07:45:02.284Z,1016.48
2022-07-30T07:50:02.937Z,1016.42
2022-07-30T07:55:08.934Z,1016.39
2022-07-30T08:00:03.210Z,1016.48
2022-07-30T08:05:03.122Z,1016.31
2022-07-30T08:10:02.905Z,1016.2
2022-07-30T08:15:02.539Z,1016.32
2022-07-30T08:20:02.230Z,1016.18
2022-07-30T08:25:03.875Z,1016.23
2022-07-30T08:30:02.841Z,1016.21
2022-07-30T08:35:02.497Z,1016.02
2022-07-30T08:40:02.208Z,1016.04
2022-07-30T08:45:02.977Z,1016.05
2022-07-30T08:50:02.669Z,1016.02
2022-07-30T08:55:03.570Z,1015.99
2022-07-30T09:00:03.204Z,1016.04
2022-07-30T09:05:03.114Z,1016.11
2022-07-30T09:10:02.767Z,1016.19
2022-07-30T09:15:02.405Z,1016.17
2022-07-30T09:20:03.148Z,1016.18
2022-07-30T09:25:03.022Z,1016.2
2022-07-30T09:30:02.709Z,1016.11
2022-07-30T09:35:02.360Z,1016.13
2022-07-30T09:40:03.055Z,1016.11
2022-07-30T09:45:02.865Z,1016.09
2022-07-30T09:50:07.212Z,1016.14
2022-07-30T09:55:04.159Z,1016.12
2022-07-30T10:00:02.573Z,1016.17
2022-07-30T10:05:08.746Z,1016.12
2022-07-30T10:10:06.409Z,1016.16
2022-07-30T10:15:07.223Z,1016.1
2022-07-30T10:20:09.155Z,1016.18
2022-07-30T10:25:05.403Z,1016.13
2022-07-30T10:30:04.418Z,1016.13
2022-07-30T10:35:03.836Z,1016.14
2022-07-30T10:40:03.424Z,1016.17
2022-07-30T10:45:03.029Z,1016.18
2022-07-30T10:50:02.655Z,1016.15
2022-07-30T10:55:06.811Z,1016.22
2022-07-30T11:00:04.007Z,1016.33
2022-07-30T11:05:02.860Z,1016.3
2022-07-30T11:10:05.697Z,1016.27
2022-07-30T11:15:06.340Z,1016.31
2022-07-30T11:20:02.363Z,1016.36
2022-07-30T11:25:05.531Z,1016.5
2022-07-30T11:30:03.043Z,1016.56
2022-07-30T11:35:02.927Z,1016.4
2022-07-30T11:40:02.895Z,1016.48
2022-07-30T11:45:04.354Z,1016.58
2022-07-30T11:50:03.205Z,1016.42
2022-07-30T11:55:06.016Z,1016.49
2022-07-30T12:00:02.849Z,1016.54
2022-07-30T12:05:02.906Z,1016.62
2022-07-30T12:10:02.544Z,1016.59
2022-07-30T12:15:03.258Z,1016.63
2022-07-30T12:20:03.041Z,1016.63
2022-07-30T12:25:02.700Z,1016.61
2022-07-30T12:30:02.505Z,1016.78
2022-07-30T12:35:03.153Z,1016.78
2022-07-30T12:40:02.657Z,1016.82
2022-07-30T12:45:03.370Z,1016.8
2022-07-30T12:50:03.323Z,1016.73
2022-07-30T12:55:04.103Z,1016.66
2022-07-30T13:00:03.597Z,1016.66
2022-07-30T13:05:12.102Z,1016.63
2022-07-30T13:10:02.922Z,1016.61
2022-07-30T13:15:02.536Z,1016.56
2022-07-30T13:20:02.224Z,1016.62
2022-07-30T13:25:03.017Z,1016.55
2022-07-30T13:30:02.784Z,1016.61
2022-07-30T13:35:02.414Z,1016.46
2022-07-30T13:40:03.107Z,1016.53
2022-07-30T13:45:03.096Z,1016.51
2022-07-30T13:50:02.678Z,1016.46
2022-07-30T13:55:04.221Z,1016.5
2022-07-30T14:00:02.861Z,1016.5
2022-07-30T14:05:02.613Z,1016.38
2022-07-30T14:10:02.329Z,1016.46
2022-07-30T14:15:03.201Z,1016.52
2022-07-30T14:20:02.817Z,1016.5
2022-07-30T14:25:02.504Z,1016.47
2022-07-30T14:30:03.218Z,1016.43
2022-07-30T14:35:02.206Z,1016.5
2022-07-30T14:40:03.185Z,1016.55
2022-07-30T14:45:03.057Z,1016.39
2022-07-30T14:50:02.837Z,1016.5
2022-07-30T14:55:07.033Z,1016.53
2022-07-30T15:00:02.615Z,1016.54
2022-07-30T15:05:02.355Z,1016.58
2022-07-30T15:10:02.655Z,1016.7
2022-07-30T15:15:05.129Z,1016.68
2022-07-30T15:20:02.995Z,1016.82
2022-07-30T15:25:02.706Z,1016.91
2022-07-30T15:30:02.465Z,1016.77
2022-07-30T15:35:02.974Z,1016.87
2022-07-30T15:40:02.750Z,1016.86
2022-07-30T15:45:18.847Z,1016.7
2022-07-30T15:50:02.566Z,1016.66
2022-07-30T15:55:04.110Z,1016.7
2022-07-30T16:00:02.878Z,1016.64
2022-07-30T16:05:03.046Z,1016.66
2022-07-30T16:10:02.341Z,1016.7
2022-07-30T16:15:03.270Z,1016.63
2022-07-30T16:20:03.035Z,1016.62
2022-07-30T16:25:02.727Z,1016.74
2022-07-30T16:30:02.453Z,1016.78
2022-07-30T16:35:02.986Z,1016.82
2022-07-30T16:40:02.407Z,1016.87
2022-07-30T16:45:03.268Z,1016.92
2022-07-30T16:50:03.028Z,1016.98
2022-07-30T16:55:04.074Z,1016.94
2022-07-30T17:00:02.412Z,1016.95
2022-07-30T17:05:02.925Z,1017.03
2022-07-30T17:10:02.685Z,1016.98
2022-07-30T17:15:02.470Z,1017.04
2022-07-30T17:20:02.296Z,1016.97
2022-07-30T17:25:02.955Z,1017.08
2022-07-30T17:30:02.778Z,1017.13
2022-07-30T17:35:02.746Z,1017.19
2022-07-30T17:40:31.291Z,1017.22
2022-07-30T17:45:02.944Z,1017.13
2022-07-30T17:50:02.626Z,1017.23
2022-07-30T17:55:03.462Z,1017.2
2022-07-30T18:00:03.203Z,1017.22
2022-07-30T18:05:02.821Z,1017.16
2022-07-30T18:10:02.714Z,1017.26
2022-07-30T18:15:02.459Z,1017.2
2022-07-30T18:20:03.147Z,1017.2
2022-07-30T18:25:02.964Z,1017.22
2022-07-30T18:30:02.389Z,1017.33
2022-07-30T18:35:03.043Z,1017.29
2022-07-30T18:40:04.102Z,1017.28
2022-07-30T18:45:02.537Z,1017.34
2022-07-30T18:50:03.219Z,1017.33
2022-07-30T18:55:04.077Z,1017.34
2022-07-30T19:00:02.737Z,1017.48
2022-07-30T19:05:02.414Z,1017.45
2022-07-30T19:10:02.348Z,1017.57
2022-07-30T19:15:03.068Z,1017.62
2022-07-30T19:20:02.859Z,1017.6
2022-07-30T19:25:02.668Z,1017.62
2022-07-30T19:30:03.541Z,1017.75
2022-07-30T19:35:03.188Z,1017.63
2022-07-30T19:40:05.887Z,1017.72
2022-07-30T19:45:04.179Z,1017.75
2022-07-30T19:50:02.797Z,1017.81
2022-07-30T19:55:18.482Z,1017.95
2022-07-30T20:00:05.029Z,1017.84
2022-07-30T20:05:06.306Z,1017.93
2022-07-30T20:10:03.123Z,1017.85
2022-07-30T20:15:03.700Z,1017.98
2022-07-30T20:20:06.572Z,1017.95
2022-07-30T20:25:03.327Z,1017.91
2022-07-30T20:30:02.695Z,1017.91
2022-07-30T20:35:02.468Z,1017.98
2022-07-30T20:40:02.502Z,1018.07
2022-07-30T20:45:04.138Z,1018.03
2022-07-30T20:50:02.951Z,1018.02
2022-07-30T20:55:04.334Z,1017.98
2022-07-30T21:00:03.868Z,1018.01
2022-07-30T21:05:02.989Z,1017.99
2022-07-30T21:10:02.997Z,1018
2022-07-30T21:15:02.967Z,1017.99
2022-07-30T21:20:03.051Z,1017.99
2022-07-30T21:25:02.811Z,1017.91
2022-07-30T21:30:02.547Z,1017.98
2022-07-30T21:35:08.050Z,1018.04
2022-07-30T21:40:02.413Z,1017.95
2022-07-30T21:45:03.135Z,1017.97
2022-07-30T21:50:03.066Z,1017.94
2022-07-30T21:55:05.565Z,1018
2022-07-30T22:00:02.738Z,1018.03
2022-07-30T22:05:02.416Z,1018.04
2022-07-30T22:10:03.112Z,1018.06
2022-07-30T22:15:02.443Z,1018.06
2022-07-30T22:20:02.229Z,1018.02
2022-07-30T22:25:03.013Z,1018.01
2022-07-30T22:30:02.521Z,1018
2022-07-30T22:35:03.176Z,1017.93
2022-07-30T22:40:02.997Z,1017.89
2022-07-30T22:45:02.933Z,1017.86
2022-07-30T22:50:02.602Z,1017.89
2022-07-30T22:55:12.246Z,1017.91
2022-07-30T23:00:02.531Z,1017.88
2022-07-30T23:05:03.024Z,1017.8
2022-07-30T23:10:02.956Z,1017.78
2022-07-30T23:15:03.224Z,1017.78
2022-07-30T23:20:03.056Z,1017.72
2022-07-30T23:25:02.795Z,1017.78
2022-07-30T23:30:02.543Z,1017.74
2022-07-30T23:35:02.585Z,1017.71
2022-07-30T23:40:03.220Z,1017.76
2022-07-30T23:45:02.864Z,1017.77
2022-07-30T23:50:02.576Z,1017.76
2022-07-30T23:55:03.741Z,1017.84
